sensor_id;sensor_type;location;lat;lon;timestamp;pressure;altitude;pressure_sealevel;temperature;humidity
59106;BME280;44891;50.204;8.132;2022-12-10T00:02:08;97207.59;;;-0.40;92.35
59106;BME280;44891;50.204;8.132;2022-12-10T00:06:14;97203.16;;;-0.53;93.61
59106;BME280;44891;50.204;8.132;2022-12-10T00:10:16;97211.16;;;-0.41;92.49
59106;BME280;44891;50.204;8.132;2022-12-10T00:14:18;97215.94;;;-0.38;92.15
59106;BME280;44891;50.204;8.132;2022-12-10T00:18:20;97211.78;;;-0.39;92.04
59106;BME280;44891;50.204;8.132;2022-12-10T00:22:23;97211.78;;;-0.39;92.18
59106;BME280;44891;50.204;8.132;2022-12-10T00:26:26;97214.34;;;-0.46;92.39
59106;BME280;44891;50.204;8.132;2022-12-10T00:30:28;97216.72;;;-0.44;92.39
59106;BME280;44891;50.204;8.132;2022-12-10T00:34:30;97209.88;;;-0.65;92.43
59106;BME280;44891;50.204;8.132;2022-12-10T00:38:33;97207.53;;;-0.53;93.31
59106;BME280;44891;50.204;8.132;2022-12-10T00:42:36;97203.59;;;-0.49;92.32
59106;BME280;44891;50.204;8.132;2022-12-10T00:46:38;97205.97;;;-0.48;92.41
59106;BME280;44891;50.204;8.132;2022-12-10T00:50:40;97210.16;;;-0.40;92.32
59106;BME280;44891;50.204;8.132;2022-12-10T00:54:43;97209.16;;;-0.46;92.42
59106;BME280;44891;50.204;8.132;2022-12-10T00:58:45;97212.50;;;-0.59;93.22
59106;BME280;44891;50.204;8.132;2022-12-10T01:02:48;97211.09;;;-0.55;93.42
59106;BME280;44891;50.204;8.132;2022-12-10T01:06:52;97213.88;;;-0.56;92.92
59106;BME280;44891;50.204;8.132;2022-12-10T01:10:56;97219.06;;;-0.49;92.69
59106;BME280;44891;50.204;8.132;2022-12-10T01:14:58;97232.97;;;-0.44;91.94
59106;BME280;44891;50.204;8.132;2022-12-10T01:19:00;97231.16;;;-0.50;92.05
59106;BME280;44891;50.204;8.132;2022-12-10T01:23:02;97233.31;;;-0.53;91.38
59106;BME280;44891;50.204;8.132;2022-12-10T01:27:06;97239.47;;;-0.55;91.40
59106;BME280;44891;50.204;8.132;2022-12-10T01:31:10;97238.09;;;-0.50;91.44
59106;BME280;44891;50.204;8.132;2022-12-10T01:35:12;97241.06;;;-0.53;91.76
59106;BME280;44891;50.204;8.132;2022-12-10T01:39:15;97244.03;;;-0.57;91.84
59106;BME280;44891;50.204;8.132;2022-12-10T01:43:19;97247.78;;;-0.59;91.73
59106;BME280;44891;50.204;8.132;2022-12-10T01:47:21;97264.81;;;-0.65;92.03
59106;BME280;44891;50.204;8.132;2022-12-10T01:51:23;97267.31;;;-0.78;91.44
59106;BME280;44891;50.204;8.132;2022-12-10T01:59:54;97268.22;;;-0.58;90.93
59106;BME280;44891;50.204;8.132;2022-12-10T02:04:01;97275.25;;;-0.38;90.16
59106;BME280;44891;50.204;8.132;2022-12-10T02:08:08;97269.25;;;-0.52;90.99
59106;BME280;44891;50.204;8.132;2022-12-10T02:12:17;97271.00;;;-0.59;91.53
59106;BME280;44891;50.204;8.132;2022-12-10T02:16:26;97266.47;;;-0.50;91.13
59106;BME280;44891;50.204;8.132;2022-12-10T02:20:32;97255.78;;;-0.41;90.02
59106;BME280;44891;50.204;8.132;2022-12-10T02:24:39;97254.44;;;-0.37;89.18
59106;BME280;44891;50.204;8.132;2022-12-10T02:28:44;97249.84;;;-0.41;88.52
59106;BME280;44891;50.204;8.132;2022-12-10T02:32:51;97250.25;;;-0.44;88.84
59106;BME280;44891;50.204;8.132;2022-12-10T02:36:54;97247.69;;;-0.38;88.34
59106;BME280;44891;50.204;8.132;2022-12-10T02:40:57;97249.00;;;-0.48;89.39
59106;BME280;44891;50.204;8.132;2022-12-10T02:45:00;97244.09;;;-0.43;89.75
59106;BME280;44891;50.204;8.132;2022-12-10T02:49:04;97247.66;;;-0.44;90.38
59106;BME280;44891;50.204;8.132;2022-12-10T02:53:10;97246.63;;;-0.50;89.32
59106;BME280;44891;50.204;8.132;2022-12-10T02:57:24;97249.22;;;-0.50;89.48
59106;BME280;44891;50.204;8.132;2022-12-10T03:01:35;97255.72;;;-0.54;89.12
59106;BME280;44891;50.204;8.132;2022-12-10T03:05:46;97261.13;;;-0.49;88.91
59106;BME280;44891;50.204;8.132;2022-12-10T03:09:52;97255.91;;;-0.62;89.12
59106;BME280;44891;50.204;8.132;2022-12-10T03:13:57;97251.09;;;-0.72;89.83
59106;BME280;44891;50.204;8.132;2022-12-10T03:18:00;97251.66;;;-0.76;90.18
59106;BME280;44891;50.204;8.132;2022-12-10T03:22:05;97248.34;;;-0.64;90.13
59106;BME280;44891;50.204;8.132;2022-12-10T03:26:08;97240.03;;;-0.66;90.05
59106;BME280;44891;50.204;8.132;2022-12-10T03:30:11;97243.56;;;-0.67;90.49
59106;BME280;44891;50.204;8.132;2022-12-10T03:34:13;97246.03;;;-0.52;90.05
59106;BME280;44891;50.204;8.132;2022-12-10T03:38:17;97249.38;;;-0.58;88.93
59106;BME280;44891;50.204;8.132;2022-12-10T03:42:19;97239.69;;;-0.49;88.29
59106;BME280;44891;50.204;8.132;2022-12-10T03:46:21;97240.34;;;-0.75;88.62
59106;BME280;44891;50.204;8.132;2022-12-10T03:50:23;97248.34;;;-0.64;88.82
59106;BME280;44891;50.204;8.132;2022-12-10T03:54:27;97246.19;;;-0.60;88.68
59106;BME280;44891;50.204;8.132;2022-12-10T03:58:29;97240.06;;;-0.59;88.59
59106;BME280;44891;50.204;8.132;2022-12-10T04:02:31;97240.84;;;-0.59;88.43
59106;BME280;44891;50.204;8.132;2022-12-10T04:06:33;97242.59;;;-0.66;89.15
59106;BME280;44891;50.204;8.132;2022-12-10T04:10:36;97249.13;;;-0.70;89.05
59106;BME280;44891;50.204;8.132;2022-12-10T04:14:39;97245.50;;;-0.75;88.84
59106;BME280;44891;50.204;8.132;2022-12-10T04:18:59;97243.28;;;-0.85;89.46
59106;BME280;44891;50.204;8.132;2022-12-10T04:23:01;97244.91;;;-0.77;88.83
59106;BME280;44891;50.204;8.132;2022-12-10T04:27:22;97240.50;;;-0.84;88.91
59106;BME280;44891;50.204;8.132;2022-12-10T04:31:24;97246.47;;;-0.83;88.62
59106;BME280;44891;50.204;8.132;2022-12-10T04:35:26;97248.59;;;-0.87;88.89
59106;BME280;44891;50.204;8.132;2022-12-10T04:39:28;97250.44;;;-0.80;89.39
59106;BME280;44891;50.204;8.132;2022-12-10T04:43:31;97256.78;;;-0.83;89.61
59106;BME280;44891;50.204;8.132;2022-12-10T04:47:33;97260.50;;;-0.92;89.92
59106;BME280;44891;50.204;8.132;2022-12-10T04:51:35;97269.88;;;-1.06;90.10
59106;BME280;44891;50.204;8.132;2022-12-10T04:55:38;97267.22;;;-1.19;90.72
59106;BME280;44891;50.204;8.132;2022-12-10T04:59:41;97258.38;;;-1.10;90.74
59106;BME280;44891;50.204;8.132;2022-12-10T05:03:44;97274.84;;;-1.32;91.93
59106;BME280;44891;50.204;8.132;2022-12-10T05:07:46;97271.00;;;-1.15;91.03
59106;BME280;44891;50.204;8.132;2022-12-10T05:11:48;97266.72;;;-1.08;90.78
59106;BME280;44891;50.204;8.132;2022-12-10T05:15:51;97270.91;;;-1.00;90.82
59106;BME280;44891;50.204;8.132;2022-12-10T05:19:53;97275.94;;;-0.92;90.65
59106;BME280;44891;50.204;8.132;2022-12-10T05:23:55;97279.13;;;-0.90;90.20
59106;BME280;44891;50.204;8.132;2022-12-10T05:27:57;97277.09;;;-0.95;90.02
59106;BME280;44891;50.204;8.132;2022-12-10T05:32:00;97276.81;;;-1.06;90.30
59106;BME280;44891;50.204;8.132;2022-12-10T05:36:03;97280.25;;;-0.99;90.44
59106;BME280;44891;50.204;8.132;2022-12-10T05:40:05;97284.38;;;-1.05;90.05
59106;BME280;44891;50.204;8.132;2022-12-10T05:44:08;97282.91;;;-1.14;90.65
59106;BME280;44891;50.204;8.132;2022-12-10T05:48:13;97290.28;;;-1.11;90.72
59106;BME280;44891;50.204;8.132;2022-12-10T05:52:15;97300.44;;;-1.03;90.27
59106;BME280;44891;50.204;8.132;2022-12-10T05:56:19;97289.00;;;-0.94;89.39
59106;BME280;44891;50.204;8.132;2022-12-10T06:00:21;97295.84;;;-1.07;89.10
59106;BME280;44891;50.204;8.132;2022-12-10T06:04:25;97298.84;;;-1.04;89.80
59106;BME280;44891;50.204;8.132;2022-12-10T06:08:27;97296.88;;;-1.02;89.13
59106;BME280;44891;50.204;8.132;2022-12-10T06:12:29;97288.25;;;-0.88;88.64
59106;BME280;44891;50.204;8.132;2022-12-10T06:16:31;97293.31;;;-0.73;87.93
59106;BME280;44891;50.204;8.132;2022-12-10T06:20:36;97288.72;;;-0.77;88.25
59106;BME280;44891;50.204;8.132;2022-12-10T06:24:38;97285.56;;;-0.73;88.77
59106;BME280;44891;50.204;8.132;2022-12-10T06:28:40;97293.66;;;-0.83;88.84
59106;BME280;44891;50.204;8.132;2022-12-10T06:32:42;97296.81;;;-0.80;88.16
59106;BME280;44891;50.204;8.132;2022-12-10T06:36:45;97297.63;;;-0.80;87.88
59106;BME280;44891;50.204;8.132;2022-12-10T06:40:48;97304.94;;;-0.84;88.46
59106;BME280;44891;50.204;8.132;2022-12-10T06:44:50;97298.75;;;-0.89;89.29
59106;BME280;44891;50.204;8.132;2022-12-10T06:48:52;97322.09;;;-0.69;89.40
59106;BME280;44891;50.204;8.132;2022-12-10T06:52:55;97326.66;;;-0.71;89.06
59106;BME280;44891;50.204;8.132;2022-12-10T06:56:57;97325.50;;;-0.62;89.09
59106;BME280;44891;50.204;8.132;2022-12-10T07:01:02;97330.06;;;-0.64;88.51
59106;BME280;44891;50.204;8.132;2022-12-10T07:05:04;97343.69;;;-0.70;89.75
59106;BME280;44891;50.204;8.132;2022-12-10T07:09:07;97340.13;;;-0.69;90.04
59106;BME280;44891;50.204;8.132;2022-12-10T07:13:10;97340.19;;;-0.63;88.54
59106;BME280;44891;50.204;8.132;2022-12-10T07:17:12;97342.31;;;-0.66;88.17
59106;BME280;44891;50.204;8.132;2022-12-10T07:21:14;97349.53;;;-0.55;88.50
59106;BME280;44891;50.204;8.132;2022-12-10T07:25:17;97357.09;;;-0.53;87.95
59106;BME280;44891;50.204;8.132;2022-12-10T07:29:20;97353.22;;;-0.71;89.04
59106;BME280;44891;50.204;8.132;2022-12-10T07:33:22;97363.78;;;-0.66;89.29
59106;BME280;44891;50.204;8.132;2022-12-10T07:37:24;97364.72;;;-0.67;89.72
59106;BME280;44891;50.204;8.132;2022-12-10T07:41:27;97366.31;;;-0.72;90.54
59106;BME280;44891;50.204;8.132;2022-12-10T07:45:32;97362.53;;;-0.70;90.51
59106;BME280;44891;50.204;8.132;2022-12-10T07:49:34;97358.19;;;-0.69;89.66
59106;BME280;44891;50.204;8.132;2022-12-10T07:53:36;97357.88;;;-0.81;90.10
59106;BME280;44891;50.204;8.132;2022-12-10T07:57:39;97361.47;;;-0.82;91.01
59106;BME280;44891;50.204;8.132;2022-12-10T08:01:41;97366.25;;;-0.79;90.78
59106;BME280;44891;50.204;8.132;2022-12-10T08:05:43;97372.38;;;-0.80;91.99
59106;BME280;44891;50.204;8.132;2022-12-10T08:09:45;97379.41;;;-0.67;90.39
59106;BME280;44891;50.204;8.132;2022-12-10T08:13:48;97386.34;;;-0.68;90.56
59106;BME280;44891;50.204;8.132;2022-12-10T08:17:50;97385.69;;;-0.76;90.30
59106;BME280;44891;50.204;8.132;2022-12-10T08:21:52;97393.84;;;-0.73;91.48
59106;BME280;44891;50.204;8.132;2022-12-10T08:25:54;97399.00;;;-0.73;91.24
59106;BME280;44891;50.204;8.132;2022-12-10T08:29:57;97396.09;;;-0.63;91.46
59106;BME280;44891;50.204;8.132;2022-12-10T08:33:59;97396.91;;;-0.63;90.85
59106;BME280;44891;50.204;8.132;2022-12-10T08:38:01;97405.38;;;-0.69;91.27
59106;BME280;44891;50.204;8.132;2022-12-10T08:42:03;97398.53;;;-0.83;92.35
59106;BME280;44891;50.204;8.132;2022-12-10T08:46:06;97404.63;;;-0.63;91.50
59106;BME280;44891;50.204;8.132;2022-12-10T08:50:08;97415.06;;;-0.49;90.65
59106;BME280;44891;50.204;8.132;2022-12-10T08:54:10;97406.75;;;-0.45;90.21
59106;BME280;44891;50.204;8.132;2022-12-10T08:58:12;97414.91;;;-0.41;89.52
59106;BME280;44891;50.204;8.132;2022-12-10T09:02:16;97426.09;;;-0.28;89.31
59106;BME280;44891;50.204;8.132;2022-12-10T09:06:18;97416.81;;;-0.22;88.09
59106;BME280;44891;50.204;8.132;2022-12-10T09:10:21;97425.59;;;-0.16;88.18
59106;BME280;44891;50.204;8.132;2022-12-10T09:14:23;97428.41;;;-0.11;88.02
59106;BME280;44891;50.204;8.132;2022-12-10T09:18:26;97434.56;;;-0.12;88.77
59106;BME280;44891;50.204;8.132;2022-12-10T09:22:28;97431.44;;;-0.01;87.75
59106;BME280;44891;50.204;8.132;2022-12-10T09:26:30;97437.53;;;-0.09;87.58
59106;BME280;44891;50.204;8.132;2022-12-10T09:30:32;97438.06;;;0.08;87.96
59106;BME280;44891;50.204;8.132;2022-12-10T09:34:36;97438.25;;;0.07;87.96
59106;BME280;44891;50.204;8.132;2022-12-10T09:38:39;97437.25;;;0.08;87.12
59106;BME280;44891;50.204;8.132;2022-12-10T09:42:43;97433.28;;;0.12;86.60
59106;BME280;44891;50.204;8.132;2022-12-10T09:46:51;97429.91;;;0.11;87.69
59106;BME280;44891;50.204;8.132;2022-12-10T09:50:55;97431.97;;;0.22;86.29
59106;BME280;44891;50.204;8.132;2022-12-10T09:55:01;97429.41;;;0.29;86.55
59106;BME280;44891;50.204;8.132;2022-12-10T09:59:06;97440.06;;;0.19;86.49
59106;BME280;44891;50.204;8.132;2022-12-10T10:03:15;97430.25;;;0.36;86.29
59106;BME280;44891;50.204;8.132;2022-12-10T10:07:18;97428.88;;;0.40;85.49
59106;BME280;44891;50.204;8.132;2022-12-10T10:11:23;97431.00;;;0.30;85.99
59106;BME280;44891;50.204;8.132;2022-12-10T10:15:28;97430.81;;;0.32;85.21
59106;BME280;44891;50.204;8.132;2022-12-10T10:19:31;97434.16;;;0.25;85.25
59106;BME280;44891;50.204;8.132;2022-12-10T10:23:36;97440.97;;;0.33;84.81
59106;BME280;44891;50.204;8.132;2022-12-10T10:27:38;97434.38;;;0.31;84.69
59106;BME280;44891;50.204;8.132;2022-12-10T10:31:40;97441.03;;;0.46;84.01
59106;BME280;44891;50.204;8.132;2022-12-10T10:35:43;97440.63;;;0.49;83.40
59106;BME280;44891;50.204;8.132;2022-12-10T10:39:47;97437.81;;;0.44;83.48
59106;BME280;44891;50.204;8.132;2022-12-10T10:43:51;97432.06;;;0.42;84.00
59106;BME280;44891;50.204;8.132;2022-12-10T10:48:03;97439.84;;;0.49;84.45
59106;BME280;44891;50.204;8.132;2022-12-10T10:52:06;97436.91;;;0.72;83.02
59106;BME280;44891;50.204;8.132;2022-12-10T10:56:15;97440.09;;;0.67;81.38
59106;BME280;44891;50.204;8.132;2022-12-10T11:00:19;97438.94;;;0.83;81.70
59106;BME280;44891;50.204;8.132;2022-12-10T11:04:23;97433.47;;;1.19;80.64
59106;BME280;44891;50.204;8.132;2022-12-10T11:08:29;97428.47;;;1.44;79.40
59106;BME280;44891;50.204;8.132;2022-12-10T11:12:37;97428.09;;;1.47;78.35
59106;BME280;44891;50.204;8.132;2022-12-10T11:16:39;97426.69;;;1.38;78.50
59106;BME280;44891;50.204;8.132;2022-12-10T11:20:41;97432.06;;;1.30;79.06
59106;BME280;44891;50.204;8.132;2022-12-10T11:24:57;97418.31;;;0.96;80.38
59106;BME280;44891;50.204;8.132;2022-12-10T11:29:08;97425.25;;;0.96;80.41
59106;BME280;44891;50.204;8.132;2022-12-10T11:33:16;97434.59;;;0.90;81.48
59106;BME280;44891;50.204;8.132;2022-12-10T11:37:22;97431.22;;;0.90;80.90
59106;BME280;44891;50.204;8.132;2022-12-10T11:41:29;97439.97;;;0.89;80.35
59106;BME280;44891;50.204;8.132;2022-12-10T11:45:39;97440.16;;;0.87;80.14
59106;BME280;44891;50.204;8.132;2022-12-10T11:49:48;97432.97;;;0.82;80.33
59106;BME280;44891;50.204;8.132;2022-12-10T11:54:02;97441.16;;;0.86;79.99
59106;BME280;44891;50.204;8.132;2022-12-10T11:58:17;97440.31;;;0.79;80.45
59106;BME280;44891;50.204;8.132;2022-12-10T12:02:44;97435.16;;;0.79;80.26
59106;BME280;44891;50.204;8.132;2022-12-10T12:06:58;97439.88;;;0.62;79.85
59106;BME280;44891;50.204;8.132;2022-12-10T12:15:21;97445.78;;;0.49;79.94
59106;BME280;44891;50.204;8.132;2022-12-10T12:19:28;97457.13;;;0.48;80.05
59106;BME280;44891;50.204;8.132;2022-12-10T12:23:35;97456.94;;;0.57;80.41
59106;BME280;44891;50.204;8.132;2022-12-10T12:27:40;97461.81;;;0.38;80.89
59106;BME280;44891;50.204;8.132;2022-12-10T12:31:43;97455.09;;;0.44;80.52
59106;BME280;44891;50.204;8.132;2022-12-10T12:35:50;97449.41;;;0.55;79.89
59106;BME280;44891;50.204;8.132;2022-12-10T12:39:54;97452.59;;;0.64;79.78
59106;BME280;44891;50.204;8.132;2022-12-10T12:44:00;97449.81;;;0.65;79.96
59106;BME280;44891;50.204;8.132;2022-12-10T12:48:09;97450.69;;;0.38;80.87
59106;BME280;44891;50.204;8.132;2022-12-10T12:52:18;97457.25;;;0.34;80.93
59106;BME280;44891;50.204;8.132;2022-12-10T12:56:24;97466.41;;;0.36;80.10
59106;BME280;44891;50.204;8.132;2022-12-10T13:00:28;97473.00;;;0.52;80.55
59106;BME280;44891;50.204;8.132;2022-12-10T13:04:36;97470.63;;;0.50;79.36
59106;BME280;44891;50.204;8.132;2022-12-10T13:08:44;97468.03;;;0.44;80.21
59106;BME280;44891;50.204;8.132;2022-12-10T13:12:48;97473.91;;;0.31;80.58
59106;BME280;44891;50.204;8.132;2022-12-10T13:16:58;97464.50;;;0.17;81.35
59106;BME280;44891;50.204;8.132;2022-12-10T13:25:39;97484.88;;;0.05;82.42
59106;BME280;44891;50.204;8.132;2022-12-10T13:29:44;97490.00;;;-0.02;83.19
59106;BME280;44891;50.204;8.132;2022-12-10T13:33:48;97488.41;;;-0.03;83.37
59106;BME280;44891;50.204;8.132;2022-12-10T13:37:54;97488.03;;;0.01;83.45
59106;BME280;44891;50.204;8.132;2022-12-10T13:46:51;97501.31;;;-0.03;83.77
59106;BME280;44891;50.204;8.132;2022-12-10T13:50:59;97506.91;;;0.01;83.52
59106;BME280;44891;50.204;8.132;2022-12-10T13:55:19;97511.69;;;0.04;82.83
59106;BME280;44891;50.204;8.132;2022-12-10T13:59:30;97509.56;;;0.14;81.87
59106;BME280;44891;50.204;8.132;2022-12-10T14:03:46;97516.69;;;0.12;80.78
59106;BME280;44891;50.204;8.132;2022-12-10T14:07:52;97519.88;;;-0.14;82.37
59106;BME280;44891;50.204;8.132;2022-12-10T14:11:56;97518.22;;;0.00;82.92
59106;BME280;44891;50.204;8.132;2022-12-10T14:15:59;97520.69;;;-0.13;83.82
59106;BME280;44891;50.204;8.132;2022-12-10T14:20:05;97529.13;;;-0.26;84.15
59106;BME280;44891;50.204;8.132;2022-12-10T14:28:24;97533.50;;;-0.48;85.33
59106;BME280;44891;50.204;8.132;2022-12-10T14:32:29;97543.97;;;-0.28;84.57
59106;BME280;44891;50.204;8.132;2022-12-10T14:36:36;97546.09;;;-0.38;85.18
59106;BME280;44891;50.204;8.132;2022-12-10T14:40:40;97551.84;;;-0.36;84.99
59106;BME280;44891;50.204;8.132;2022-12-10T14:44:42;97557.28;;;-0.31;84.96
59106;BME280;44891;50.204;8.132;2022-12-10T14:48:46;97564.03;;;-0.30;84.36
59106;BME280;44891;50.204;8.132;2022-12-10T14:52:51;97558.66;;;-0.50;85.03
59106;BME280;44891;50.204;8.132;2022-12-10T14:56:54;97562.31;;;-0.44;84.41
59106;BME280;44891;50.204;8.132;2022-12-10T15:00:56;97559.91;;;-0.46;84.51
59106;BME280;44891;50.204;8.132;2022-12-10T15:04:58;97568.50;;;-0.39;84.63
59106;BME280;44891;50.204;8.132;2022-12-10T15:09:02;97566.09;;;-0.40;84.68
59106;BME280;44891;50.204;8.132;2022-12-10T15:13:06;97567.34;;;-0.36;83.63
59106;BME280;44891;50.204;8.132;2022-12-10T15:21:25;97574.81;;;-0.41;83.64
59106;BME280;44891;50.204;8.132;2022-12-10T15:25:28;97566.81;;;-0.46;84.13
59106;BME280;44891;50.204;8.132;2022-12-10T15:29:32;97573.59;;;-0.45;83.79
59106;BME280;44891;50.204;8.132;2022-12-10T15:33:36;97574.69;;;-0.55;84.16
59106;BME280;44891;50.204;8.132;2022-12-10T15:37:39;97575.97;;;-0.65;84.76
59106;BME280;44891;50.204;8.132;2022-12-10T15:41:44;97571.63;;;-0.65;84.54
59106;BME280;44891;50.204;8.132;2022-12-10T15:45:48;97581.50;;;-0.68;85.09
59106;BME280;44891;50.204;8.132;2022-12-10T15:49:51;97575.97;;;-0.65;84.95
59106;BME280;44891;50.204;8.132;2022-12-10T15:53:53;97570.97;;;-0.88;86.25
59106;BME280;44891;50.204;8.132;2022-12-10T15:57:56;97580.13;;;-0.86;86.52
59106;BME280;44891;50.204;8.132;2022-12-10T16:01:58;97584.28;;;-0.85;86.33
59106;BME280;44891;50.204;8.132;2022-12-10T16:06:03;97585.59;;;-0.74;85.63
59106;BME280;44891;50.204;8.132;2022-12-10T16:10:05;97585.69;;;-0.82;85.39
59106;BME280;44891;50.204;8.132;2022-12-10T16:14:09;97582.25;;;-0.89;85.71
59106;BME280;44891;50.204;8.132;2022-12-10T16:18:11;97584.94;;;-0.97;86.42
59106;BME280;44891;50.204;8.132;2022-12-10T16:22:13;97587.84;;;-1.00;86.52
59106;BME280;44891;50.204;8.132;2022-12-10T16:26:16;97597.19;;;-0.99;87.20
59106;BME280;44891;50.204;8.132;2022-12-10T16:30:20;97597.00;;;-1.13;86.73
59106;BME280;44891;50.204;8.132;2022-12-10T16:34:23;97597.38;;;-1.16;87.29
59106;BME280;44891;50.204;8.132;2022-12-10T16:38:25;97594.97;;;-1.02;86.96
59106;BME280;44891;50.204;8.132;2022-12-10T16:42:27;97594.25;;;-0.96;86.08
59106;BME280;44891;50.204;8.132;2022-12-10T16:46:31;97587.59;;;-0.91;85.52
59106;BME280;44891;50.204;8.132;2022-12-10T16:50:33;97590.34;;;-0.92;85.74
59106;BME280;44891;50.204;8.132;2022-12-10T16:54:35;97591.16;;;-0.92;85.91
59106;BME280;44891;50.204;8.132;2022-12-10T16:58:37;97601.53;;;-0.85;86.02
59106;BME280;44891;50.204;8.132;2022-12-10T17:02:40;97601.44;;;-0.77;85.72
59106;BME280;44891;50.204;8.132;2022-12-10T17:06:42;97608.63;;;-0.87;85.33
59106;BME280;44891;50.204;8.132;2022-12-10T17:10:44;97613.19;;;-1.04;84.76
59106;BME280;44891;50.204;8.132;2022-12-10T17:15:04;97618.44;;;-0.97;85.01
59106;BME280;44891;50.204;8.132;2022-12-10T17:19:09;97611.78;;;-0.92;84.63
59106;BME280;44891;50.204;8.132;2022-12-10T17:23:12;97620.53;;;-0.86;84.53
59106;BME280;44891;50.204;8.132;2022-12-10T17:27:15;97621.38;;;-0.86;84.15
59106;BME280;44891;50.204;8.132;2022-12-10T17:31:17;97623.03;;;-0.93;84.90
59106;BME280;44891;50.204;8.132;2022-12-10T17:35:20;97623.66;;;-0.91;84.58
59106;BME280;44891;50.204;8.132;2022-12-10T17:39:22;97618.94;;;-0.87;84.64
59106;BME280;44891;50.204;8.132;2022-12-10T17:43:26;97626.94;;;-0.82;84.32
59106;BME280;44891;50.204;8.132;2022-12-10T17:47:28;97624.81;;;-0.78;84.65
59106;BME280;44891;50.204;8.132;2022-12-10T17:51:33;97621.59;;;-0.80;84.32
59106;BME280;44891;50.204;8.132;2022-12-10T17:55:35;97623.66;;;-0.91;83.72
59106;BME280;44891;50.204;8.132;2022-12-10T17:59:37;97629.53;;;-0.97;84.71
59106;BME280;44891;50.204;8.132;2022-12-10T18:03:43;97635.13;;;-1.08;84.31
59106;BME280;44891;50.204;8.132;2022-12-10T18:07:46;97631.94;;;-0.95;83.94
59106;BME280;44891;50.204;8.132;2022-12-10T18:11:48;97631.06;;;-1.02;84.65
59106;BME280;44891;50.204;8.132;2022-12-10T18:15:49;97636.31;;;-1.11;85.53
59106;BME280;44891;50.204;8.132;2022-12-10T18:19:51;97633.91;;;-0.97;84.63
59106;BME280;44891;50.204;8.132;2022-12-10T18:23:55;97637.53;;;-1.06;84.38
59106;BME280;44891;50.204;8.132;2022-12-10T18:27:58;97635.84;;;-0.99;84.56
59106;BME280;44891;50.204;8.132;2022-12-10T18:32:01;97650.94;;;-0.96;84.20
59106;BME280;44891;50.204;8.132;2022-12-10T18:36:04;97649.19;;;-1.11;84.64
59106;BME280;44891;50.204;8.132;2022-12-10T18:40:10;97652.56;;;-1.25;85.39
59106;BME280;44891;50.204;8.132;2022-12-10T18:44:14;97656.53;;;-1.07;85.09
59106;BME280;44891;50.204;8.132;2022-12-10T18:48:17;97651.56;;;-1.09;85.29
59106;BME280;44891;50.204;8.132;2022-12-10T18:52:19;97656.53;;;-1.22;85.42
59106;BME280;44891;50.204;8.132;2022-12-10T18:56:23;97653.88;;;-1.14;84.78
59106;BME280;44891;50.204;8.132;2022-12-10T19:00:25;97651.41;;;-1.22;85.20
59106;BME280;44891;50.204;8.132;2022-12-10T19:04:27;97663.38;;;-1.29;86.25
59106;BME280;44891;50.204;8.132;2022-12-10T19:08:29;97670.31;;;-1.30;86.26
59106;BME280;44891;50.204;8.132;2022-12-10T19:12:32;97660.00;;;-1.45;87.27
59106;BME280;44891;50.204;8.132;2022-12-10T19:16:34;97664.88;;;-1.50;87.28
59106;BME280;44891;50.204;8.132;2022-12-10T19:20:36;97663.47;;;-1.38;86.92
59106;BME280;44891;50.204;8.132;2022-12-10T19:24:38;97661.41;;;-1.42;87.31
59106;BME280;44891;50.204;8.132;2022-12-10T19:28:41;97658.13;;;-1.51;87.88
59106;BME280;44891;50.204;8.132;2022-12-10T19:32:43;97655.00;;;-1.46;88.26
59106;BME280;44891;50.204;8.132;2022-12-10T19:36:46;97658.22;;;-1.44;89.20
59106;BME280;44891;50.204;8.132;2022-12-10T19:40:48;97652.38;;;-1.23;87.79
59106;BME280;44891;50.204;8.132;2022-12-10T19:44:52;97650.94;;;-1.26;87.69
59106;BME280;44891;50.204;8.132;2022-12-10T19:48:54;97651.13;;;-1.27;87.74
59106;BME280;44891;50.204;8.132;2022-12-10T19:52:56;97658.41;;;-1.31;88.20
59106;BME280;44891;50.204;8.132;2022-12-10T19:56:59;97657.16;;;-1.20;87.55
59106;BME280;44891;50.204;8.132;2022-12-10T20:01:02;97655.75;;;-1.23;87.14
59106;BME280;44891;50.204;8.132;2022-12-10T20:05:06;97659.91;;;-1.22;87.47
59106;BME280;44891;50.204;8.132;2022-12-10T20:09:11;97651.66;;;-1.32;87.91
59106;BME280;44891;50.204;8.132;2022-12-10T20:13:14;97661.41;;;-1.27;88.27
59106;BME280;44891;50.204;8.132;2022-12-10T20:17:17;97653.50;;;-1.26;88.01
59106;BME280;44891;50.204;8.132;2022-12-10T20:21:24;97652.47;;;-1.17;87.71
59106;BME280;44891;50.204;8.132;2022-12-10T20:25:27;97651.56;;;-1.09;87.10
59106;BME280;44891;50.204;8.132;2022-12-10T20:29:28;97648.81;;;-1.07;87.27
59106;BME280;44891;50.204;8.132;2022-12-10T20:33:32;97652.09;;;-1.14;86.77
59106;BME280;44891;50.204;8.132;2022-12-10T20:37:33;97648.91;;;-1.16;87.62
59106;BME280;44891;50.204;8.132;2022-12-10T20:41:35;97659.59;;;-1.04;87.71
59106;BME280;44891;50.204;8.132;2022-12-10T20:45:37;97661.09;;;-1.10;87.35
59106;BME280;44891;50.204;8.132;2022-12-10T20:49:40;97662.16;;;-1.19;87.89
59106;BME280;44891;50.204;8.132;2022-12-10T20:53:42;97649.63;;;-1.22;88.01
59106;BME280;44891;50.204;8.132;2022-12-10T20:57:44;97650.22;;;-1.20;88.40
59106;BME280;44891;50.204;8.132;2022-12-10T21:01:46;97652.56;;;-1.25;88.65
59106;BME280;44891;50.204;8.132;2022-12-10T21:05:49;97643.94;;;-1.17;88.37
59106;BME280;44891;50.204;8.132;2022-12-10T21:09:51;97646.44;;;-1.24;88.38
59106;BME280;44891;50.204;8.132;2022-12-10T21:13:53;97645.63;;;-1.24;88.67
59106;BME280;44891;50.204;8.132;2022-12-10T21:17:55;97648.19;;;-1.24;88.81
59106;BME280;44891;50.204;8.132;2022-12-10T21:21:58;97648.53;;;-1.27;89.02
59106;BME280;44891;50.204;8.132;2022-12-10T21:26:00;97646.25;;;-1.37;89.76
59106;BME280;44891;50.204;8.132;2022-12-10T21:30:02;97649.50;;;-1.43;89.85
59106;BME280;44891;50.204;8.132;2022-12-10T21:34:04;97644.56;;;-1.30;90.21
59106;BME280;44891;50.204;8.132;2022-12-10T21:38:07;97635.13;;;-1.23;89.62
59106;BME280;44891;50.204;8.132;2022-12-10T21:42:09;97634.78;;;-1.20;89.71
59106;BME280;44891;50.204;8.132;2022-12-10T21:46:30;97625.53;;;-1.29;89.96
59106;BME280;44891;50.204;8.132;2022-12-10T21:50:32;97630.00;;;-1.23;89.65
59106;BME280;44891;50.204;8.132;2022-12-10T21:54:35;97625.81;;;-1.24;89.71
59106;BME280;44891;50.204;8.132;2022-12-10T21:58:37;97627.84;;;-1.34;90.40
59106;BME280;44891;50.204;8.132;2022-12-10T22:02:39;97628.41;;;-1.24;89.91